Canmore, Canada
Current Conditions -  °F | °C
As of 6:00 AM on Thursday 18 Dec 2014 (Local Time) from CYBW Reporting Station
Overcast Overcast  
Wind Chill: -11°   Ceiling: 13000
Heat Index: -6°   Visibility: 9mi
Dew Point: -9°   Wind: 7mph
Humidity: 80%   Direction: 320°NW
Pressure: 29.79"   Gusts: NA
Location:  51.09°N, 115.36°W
Report Text: CYBW 181300Z AUTO 32006KT 9SM OVC130 M06/M09 A2979 RMK SLP150
Loading
Personal Weather Stations






























Interactive Weather Map New forecast layout! Learn more

10-Day Weather Forecast

Advertisements
Track Severe Weather on mobile